Terminal Aerodrome Forecast
Issued by NWS North Platte, NE

Home | Current Version | Previous Version | Text Only | Print | Product List | Glossary On
Versions: 1 2 3 4 5 6 7 8 9 10 11 12 13 14 15 16 17 18 19
000
FTUS43 KLBF 082300
TAFVTN
TAF
KVTN 082326Z 0900/0924 34013G19KT P6SM FEW080
     FM090100 VRB06KT P6SM SCT080
     FM090800 16005KT P6SM BKN080
     FM091800 14012G18KT P6SM BKN080=

USA.gov is the U.S. government's official web portal to all federal, state and local government web resources and services.